Time;durP1;ratioP1;P1;durP2;ratioP2;P2;SDS_P1;SDS_P2;PMS_P1;PMS_P2;Temp;Humidity;BMP_temperature;BMP_pressure;BME280_temperature;BME280_humidity;BME280_pressure;Samples;Min_cycle;Max_cycle;Signal;HPM_P1;HPM_P2
2021/10/21 00:10:02;;;;;;;7.28;4.30;;;;;;;14.52;96.88;98951.47;20829019;28;20046;-70
2021/10/21 00:20:06;;;;;;;8.00;4.25;;;;;;;14.39;97.46;98881.94;20828230;28;20045;-70
2021/10/21 00:30:08;;;;;;;9.93;4.50;;;;;;;14.47;98.17;98935.03;20828038;28;20050;-71
2021/10/21 00:40:10;;;;;;;7.82;4.63;;;;;;;14.44;98.29;98879.91;20826702;28;20092;-71
2021/10/21 00:50:12;;;;;;;8.63;5.50;;;;;;;14.51;98.05;98891.81;20826875;28;20127;-73
2021/10/21 01:00:14;;;;;;;7.82;4.95;;;;;;;14.59;98.20;98855.34;20826938;28;20046;-72
2021/10/21 01:10:15;;;;;;;9.23;5.22;;;;;;;14.48;98.11;98786.66;20825520;28;20057;-72
2021/10/21 01:20:17;;;;;;;9.13;5.78;;;;;;;14.61;98.34;98792.91;20823953;28;20119;-70
2021/10/21 01:30:25;;;;;;;9.60;6.25;;;;;;;14.63;97.93;98698.84;20823088;28;20123;-70
2021/10/21 01:40:26;;;;;;;11.38;7.03;;;;;;;14.75;97.28;98714.84;20823020;28;20482;-70
2021/10/21 01:50:30;;;;;;;10.57;6.45;;;;;;;14.87;96.97;98687.78;20822348;28;20049;-70
2021/10/21 02:00:31;;;;;;;9.07;5.45;;;;;;;15.00;95.91;98661.53;20820958;28;20049;-70
2021/10/21 02:10:33;;;;;;;8.25;4.70;;;;;;;15.20;94.07;98655.03;20820935;28;20148;-70
2021/10/21 02:20:35;;;;;;;7.60;4.03;;;;;;;15.23;93.48;98689.91;20822149;28;20072;-71
2021/10/21 02:30:36;;;;;;;7.93;4.07;;;;;;;15.06;95.05;98714.69;20818745;28;20103;-73
2021/10/21 02:40:39;;;;;;;6.15;3.70;;;;;;;14.91;95.51;98705.09;20818763;28;20046;-71
2021/10/21 02:50:40;;;;;;;5.93;3.38;;;;;;;14.99;94.90;98679.09;20819092;28;20387;-70
2021/10/21 03:00:42;;;;;;;7.63;3.55;;;;;;;14.84;96.53;98809.16;20822827;28;20041;-69
2021/10/21 03:10:44;;;;;;;5.93;1.80;;;;;;;14.82;86.00;98796.09;20782372;28;20483;-70
2021/10/21 03:20:45;;;;;;;4.80;1.10;;;;;;;14.38;82.49;98827.59;20754837;28;20438;-70
2021/10/21 03:30:47;;;;;;;2.67;0.80;;;;;;;14.19;77.24;98840.94;20751126;28;20049;-69
2021/10/21 03:40:48;;;;;;;2.05;0.63;;;;;;;14.10;75.61;98881.75;20750566;28;20046;-69
2021/10/21 03:50:50;;;;;;;3.45;0.80;;;;;;;14.03;72.57;98909.31;20749546;28;20050;-70
2021/10/21 04:00:51;;;;;;;6.97;1.30;;;;;;;13.92;67.70;98940.63;20748530;28;20038;-70
2021/10/21 04:10:53;;;;;;;9.88;1.30;;;;;;;13.80;66.67;98957.94;20748189;28;20545;-69
2021/10/21 04:20:54;;;;;;;10.70;1.40;;;;;;;13.97;65.16;98990.38;20748348;28;20499;-68
2021/10/21 04:30:56;;;;;;;11.30;1.55;;;;;;;13.81;65.62;98995.59;20746028;28;20049;-71
2021/10/21 04:40:58;;;;;;;8.88;1.45;;;;;;;13.76;64.27;98997.63;20745717;28;20042;-70
2021/10/21 04:51:00;;;;;;;14.15;1.70;;;;;;;13.80;63.29;99018.44;20745250;28;20054;-71
2021/10/21 05:01:01;;;;;;;11.23;1.92;;;;;;;13.90;62.01;99031.97;20743515;28;20088;-71
2021/10/21 05:11:03;;;;;;;11.57;1.65;;;;;;;13.87;62.42;99026.84;20744044;28;20045;-70
2021/10/21 05:21:05;;;;;;;13.85;2.15;;;;;;;13.89;61.25;99056.56;20741554;28;20092;-71
2021/10/21 05:31:07;;;;;;;20.10;2.25;;;;;;;13.86;61.28;99048.84;20741341;28;20049;-71
2021/10/21 05:41:08;;;;;;;12.07;1.60;;;;;;;13.85;60.54;99062.94;20741294;28;20073;-71
2021/10/21 05:51:10;;;;;;;15.35;1.73;;;;;;;13.80;61.03;99078.94;20739689;28;20116;-70
2021/10/21 06:01:11;;;;;;;11.52;1.60;;;;;;;13.81;61.42;99070.13;20738922;28;20034;-70
2021/10/21 06:11:13;;;;;;;9.50;1.38;;;;;;;13.84;59.90;99100.66;20737244;28;20149;-71
2021/10/21 06:21:21;;;;;;;6.93;1.10;;;;;;;13.83;60.03;99157.69;20735506;28;20104;-70
2021/10/21 06:31:23;;;;;;;12.68;1.10;;;;;;;13.83;59.30;99126.13;20736100;28;20108;-70
2021/10/21 06:41:24;;;;;;;5.90;0.93;;;;;;;13.73;59.78;99229.25;20736042;28;20081;-70
2021/10/21 06:51:27;;;;;;;7.25;0.90;;;;;;;13.74;58.52;99296.72;20733492;28;20057;-70
2021/10/21 07:01:28;;;;;;;8.43;1.17;;;;;;;13.52;61.87;99368.72;20735084;28;20396;-69
2021/10/21 07:11:31;;;;;;;5.32;0.70;;;;;;;13.07;65.72;99424.94;20807334;28;20517;-70
2021/10/21 07:21:32;;;;;;;8.18;0.90;;;;;;;13.07;65.51;99460.88;20808339;28;20053;-69
2021/10/21 07:31:38;;;;;;;4.38;0.70;;;;;;;12.92;66.77;99514.91;20809147;28;20053;-69
2021/10/21 07:41:40;;;;;;;1.63;0.40;;;;;;;12.92;66.87;99588.47;20808218;28;20073;-67
2021/10/21 07:51:42;;;;;;;3.38;0.60;;;;;;;12.73;69.57;99625.09;20821590;28;20049;-67
2021/10/21 08:01:44;;;;;;;4.07;0.70;;;;;;;12.36;70.43;99643.94;20822721;28;20037;-67
2021/10/21 08:11:49;;;;;;;7.90;0.90;;;;;;;12.44;72.46;99675.16;20806848;28;20422;-67
2021/10/21 08:21:52;;;;;;;6.47;0.52;;;;;;;12.21;72.93;99699.56;20740215;28;20046;-67
2021/10/21 08:32:01;;;;;;;3.45;0.57;;;;;;;12.13;72.61;99733.09;20738813;28;20561;-67
2021/10/21 08:42:05;;;;;;;5.57;0.60;;;;;;;12.31;67.87;99784.97;20737242;28;20050;-67
2021/10/21 08:52:06;;;;;;;2.83;0.55;;;;;;;12.49;67.17;99815.88;20737729;28;20050;-67
2021/10/21 09:02:14;;;;;;;1.15;0.43;;;;;;;12.35;64.67;99815.47;20735826;28;20057;-67
2021/10/21 09:12:17;;;;;;;5.93;0.75;;;;;;;12.18;62.89;99838.78;20756351;28;20115;-67
2021/10/21 09:22:28;;;;;;;3.00;0.55;;;;;;;12.30;62.46;99831.38;20817057;28;20107;-67
2021/10/21 09:33:12;;;;;;;5.35;0.70;;;;;;;12.34;62.13;99847.88;20814428;28;20793;-67
2021/10/21 09:43:15;;;;;;;5.57;0.90;;;;;;;12.74;61.26;99839.59;20813458;28;20123;-67
2021/10/21 09:53:31;;;;;;;5.63;0.85;;;;;;;12.78;60.89;99866.59;20813062;28;20111;-67
2021/10/21 10:03:35;;;;;;;7.25;0.82;;;;;;;12.93;62.35;99873.09;20814035;28;20048;-67
2021/10/21 10:13:44;;;;;;;7.03;1.07;;;;;;;13.34;61.80;99874.34;20812363;28;20069;-67
2021/10/21 10:23:56;;;;;;;4.38;0.95;;;;;;;13.62;61.11;99883.88;20812184;28;20058;-67
2021/10/21 10:33:58;;;;;;;8.65;1.75;;;;;;;13.89;59.79;99916.19;20811508;28;20473;-67
2021/10/21 10:43:59;;;;;;;5.20;1.13;;;;;;;13.76;59.84;99921.91;20811597;28;20041;-67
2021/10/21 10:54:01;;;;;;;7.18;1.00;;;;;;;13.55;59.15;99941.94;20809767;28;20103;-67
2021/10/21 11:04:03;;;;;;;6.25;1.08;;;;;;;13.72;57.77;99930.84;20810639;28;20100;-67
2021/10/21 11:14:09;;;;;;;6.32;1.35;;;;;;;13.99;56.83;99926.34;20774579;28;20052;-67
2021/10/21 11:24:11;;;;;;;5.17;1.10;;;;;;;14.45;56.05;99935.09;20736266;28;20049;-69
2021/10/21 11:34:13;;;;;;;7.20;1.20;;;;;;;14.15;55.16;99928.41;20743217;28;20108;-68
2021/10/21 11:44:20;;;;;;;9.50;1.40;;;;;;;14.17;55.62;99916.03;20742296;28;20057;-69
2021/10/21 11:54:26;;;;;;;5.35;0.95;;;;;;;13.70;60.75;99897.59;20741503;28;20049;-68
2021/10/21 12:04:28;;;;;;;6.53;1.20;;;;;;;14.31;56.15;99879.47;20740931;28;20050;-68
2021/10/21 12:14:30;;;;;;;6.85;1.55;;;;;;;14.87;53.37;99873.72;20779238;28;20057;-68
2021/10/21 12:24:32;;;;;;;7.78;1.08;;;;;;;15.07;49.76;99884.28;20820792;28;20052;-67
2021/10/21 12:34:33;;;;;;;6.55;1.40;;;;;;;14.65;49.52;99855.31;20820215;28;20465;-68
2021/10/21 12:44:40;;;;;;;7.15;1.00;;;;;;;14.39;50.33;99856.34;20820218;28;20792;-67
2021/10/21 12:54:41;;;;;;;5.93;1.17;;;;;;;14.36;53.20;99859.94;20819485;28;20119;-67
2021/10/21 13:04:50;;;;;;;4.88;1.00;;;;;;;14.42;52.00;99824.63;20818148;28;20057;-67
2021/10/21 13:14:54;;;;;;;8.35;1.27;;;;;;;14.35;53.36;99829.25;20817298;28;20045;-70
2021/10/21 13:24:56;;;;;;;7.88;2.20;;;;;;;14.68;53.36;99839.38;20817330;28;20077;-70
2021/10/21 13:34:57;;;;;;;8.77;1.55;;;;;;;14.77;50.12;99830.22;20815710;28;20045;-70
2021/10/21 13:44:59;;;;;;;7.88;2.03;;;;;;;15.01;49.62;99833.59;20815439;28;20045;-70
2021/10/21 13:55:00;;;;;;;7.07;2.40;;;;;;;14.94;49.00;99827.72;20814788;28;20112;-70
2021/10/21 14:05:02;;;;;;;12.70;1.73;;;;;;;14.84;48.34;99844.84;20813315;28;20095;-68
2021/10/21 14:15:04;;;;;;;5.80;1.80;;;;;;;14.73;48.81;99832.13;20811739;28;20049;-68
2021/10/21 14:25:07;;;;;;;6.10;1.58;;;;;;;15.01;47.22;99809.88;20808809;28;20041;-68
2021/10/21 14:35:12;;;;;;;11.95;1.63;;;;;;;15.24;46.31;99828.19;20807359;28;20484;-70
2021/10/21 14:45:14;;;;;;;5.07;1.08;;;;;;;14.89;46.89;99822.66;20812849;28;20098;-69
2021/10/21 14:55:15;;;;;;;9.05;1.40;;;;;;;14.80;46.29;99814.28;20808145;28;20608;-69
2021/10/21 15:05:20;;;;;;;6.18;1.27;;;;;;;14.91;46.21;99806.78;20809322;28;20103;-69
2021/10/21 15:25:43;;;;;;;11.95;1.40;;;;;;;14.38;48.11;99780.88;20809520;28;20152;-69
2021/10/21 15:35:45;;;;;;;5.95;1.30;;;;;;;14.27;49.15;99777.81;20807797;28;20053;-69
2021/10/21 15:45:52;;;;;;;10.15;1.45;;;;;;;14.00;50.44;99764.84;20809095;28;20049;-69
2021/10/21 16:16:36;;;;;;;6.55;1.48;;;;;;;13.46;54.39;99797.66;20822499;28;20107;-68
2021/10/21 16:36:55;;;;;;;7.93;1.30;;;;;;;13.58;53.57;99841.03;20819035;28;20476;-68
2021/10/21 16:46:56;;;;;;;11.45;1.92;;;;;;;13.49;56.48;99883.44;20819218;28;20103;-68
2021/10/21 16:56:58;;;;;;;6.57;1.40;;;;;;;13.08;61.45;99896.25;20818487;28;20060;-68
2021/10/21 17:07:00;;;;;;;8.40;1.45;;;;;;;12.75;64.07;99927.13;20809207;28;20136;-68
2021/10/21 17:17:03;;;;;;;5.53;1.40;;;;;;;12.46;68.53;99963.03;20811802;28;20125;-68
2021/10/21 17:27:10;;;;;;;9.20;1.30;;;;;;;12.06;72.39;99972.06;20815733;28;20182;-69
2021/10/21 17:37:13;;;;;;;9.98;2.53;;;;;;;11.86;74.89;99986.66;19927956;28;10000965;-68
2021/10/21 17:47:14;;;;;;;10.32;2.22;;;;;;;11.76;75.13;99996.50;19931340;28;10000995;-68
2021/10/21 17:57:16;;;;;;;10.15;1.52;;;;;;;11.51;77.75;100023.38;20804055;28;20506;-71
2021/10/21 18:07:17;;;;;;;7.68;1.60;;;;;;;11.21;82.33;100029.38;20812260;28;20128;-72
2021/10/21 18:17:19;;;;;;;9.65;1.98;;;;;;;10.87;85.87;100050.25;20812548;28;20099;-70
2021/10/21 18:27:21;;;;;;;9.40;1.95;;;;;;;10.70;87.92;100063.75;20811553;28;20049;-70
2021/10/21 18:37:24;;;;;;;9.82;2.10;;;;;;;10.53;89.10;100054.47;20809488;28;20548;-69
2021/10/21 18:47:27;;;;;;;9.65;2.15;;;;;;;10.59;89.14;100055.22;20809617;28;20107;-71
2021/10/21 18:57:30;;;;;;;13.98;3.03;;;;;;;10.48;90.06;100064.19;20809416;28;20050;-72
2021/10/21 19:07:33;;;;;;;12.10;2.42;;;;;;;10.45;91.10;100076.50;20808335;28;20099;-71
2021/10/21 19:17:35;;;;;;;6.47;2.55;;;;;;;10.31;90.25;100096.84;20807542;28;20045;-71
2021/10/21 19:27:36;;;;;;;5.35;1.55;;;;;;;10.25;89.11;100092.56;20731561;28;20403;-77
2021/10/21 19:37:38;;;;;;;2.83;0.80;;;;;;;10.11;87.15;100112.84;20726345;28;20046;-72
2021/10/21 19:47:40;;;;;;;3.47;0.75;;;;;;;9.85;84.55;100165.63;20756216;28;20050;-72
2021/10/21 19:57:42;;;;;;;4.28;0.95;;;;;;;9.68;87.73;100205.13;20739108;28;20050;-73
2021/10/21 20:07:44;;;;;;;2.85;1.08;;;;;;;9.67;88.28;100234.75;20775999;28;20494;-74
2021/10/21 20:17:46;;;;;;;3.30;0.90;;;;;;;9.55;87.64;100246.25;20808605;28;20111;-72
2021/10/21 20:27:47;;;;;;;2.85;1.10;;;;;;;9.52;88.44;100256.75;20785616;28;20045;-72
2021/10/21 20:37:49;;;;;;;4.25;1.23;;;;;;;9.40;88.57;100270.00;20784878;28;20045;-71
2021/10/21 20:47:51;;;;;;;5.65;1.30;;;;;;;9.29;88.84;100272.72;20815140;28;20103;-73
2021/10/21 20:57:52;;;;;;;3.28;1.02;;;;;;;9.19;88.82;100279.81;20774863;28;1208885;-72
2021/10/21 21:07:54;;;;;;;3.30;1.13;;;;;;;8.86;88.79;100301.97;20817160;28;20403;-72
2021/10/21 21:17:56;;;;;;;3.83;0.95;;;;;;;8.80;90.08;100346.41;20817605;28;20053;-72
2021/10/21 21:27:58;;;;;;;4.10;1.02;;;;;;;8.89;88.79;100364.59;20816393;28;20118;-72
2021/10/21 21:38:00;;;;;;;3.35;1.10;;;;;;;8.91;88.49;100373.28;20813579;28;20257;-72
2021/10/21 21:48:02;;;;;;;2.90;1.10;;;;;;;8.82;89.26;100370.75;20813457;28;20432;-72
2021/10/21 21:58:03;;;;;;;5.35;1.30;;;;;;;8.73;89.58;100391.72;20813672;28;20049;-70
2021/10/21 22:08:05;;;;;;;3.97;1.30;;;;;;;8.64;90.22;100404.84;20811266;28;20471;-72
2021/10/21 22:18:07;;;;;;;4.20;1.23;;;;;;;8.33;90.92;100391.97;20793334;28;20069;-71
2021/10/21 22:28:08;;;;;;;4.18;1.50;;;;;;;8.07;91.45;100404.31;20737037;28;20049;-72
2021/10/21 22:38:10;;;;;;;4.03;1.15;;;;;;;7.83;91.81;100423.56;20735090;28;20054;-71
2021/10/21 22:48:12;;;;;;;3.78;1.30;;;;;;;7.71;92.84;100442.69;20736457;28;20471;-72
2021/10/21 22:58:14;;;;;;;5.45;1.48;;;;;;;7.57;92.86;100434.94;20733659;28;20056;-71
2021/10/21 23:08:15;;;;;;;3.10;1.33;;;;;;;7.45;91.52;100448.84;20751759;28;20054;-71
2021/10/21 23:18:16;;;;;;;8.95;1.50;;;;;;;7.41;91.15;100472.31;20740125;28;20050;-70
2021/10/21 23:28:18;;;;;;;3.35;1.40;;;;;;;7.26;92.77;100482.75;20750432;28;20058;-71
2021/10/21 23:38:20;;;;;;;6.72;1.52;;;;;;;7.10;92.05;100490.56;20749080;28;20581;-70
2021/10/21 23:48:21;;;;;;;9.82;2.03;;;;;;;7.00;92.59;100506.19;20748147;28;20046;-70
2021/10/21 23:58:23;;;;;;;4.53;1.70;;;;;;;6.82;92.78;100505.31;20747158;28;20050;-71
